createdAt,value
2018-09-08T00:00:03.053Z,1009.14
2018-09-08T00:01:03.000Z,1009.12
2018-09-08T00:02:02.688Z,1009.13
2018-09-08T00:03:02.729Z,1009.15
2018-09-08T00:04:02.951Z,1009.12
2018-09-08T00:05:02.711Z,1009.11
2018-09-08T00:06:02.622Z,1009.12
2018-09-08T00:07:02.601Z,1009.13
2018-09-08T00:08:02.737Z,1009.16
2018-09-08T00:09:02.566Z,1009.14
2018-09-08T00:10:02.911Z,1009.15
2018-09-08T00:11:02.573Z,1009.11
2018-09-08T00:12:02.555Z,1009.11
2018-09-08T00:13:02.494Z,1009.09
2018-09-08T00:14:02.623Z,1009.12
2018-09-08T00:15:02.460Z,1009.13
2018-09-08T00:16:02.755Z,1009.13
2018-09-08T00:17:02.413Z,1009.12
2018-09-08T00:18:02.753Z,1009.14
2018-09-08T00:19:02.379Z,1009.08
2018-09-08T00:20:02.490Z,1009.11
2018-09-08T00:21:02.521Z,1009.12
2018-09-08T00:22:02.714Z,1009.13
2018-09-08T00:23:02.481Z,1009.13
2018-09-08T00:24:02.573Z,1009.14
2018-09-08T00:25:02.284Z,1009.14
2018-09-08T00:26:03.195Z,1009.15
2018-09-08T00:27:02.277Z,1009.15
2018-09-08T00:28:03.774Z,1009.15
2018-09-08T00:29:02.212Z,1009.17
2018-09-08T00:30:02.255Z,1009.15
2018-09-08T00:31:02.354Z,1009.15
2018-09-08T00:32:02.375Z,1009.14
2018-09-08T00:33:02.244Z,1009.13
2018-09-08T00:34:02.414Z,1009.12
2018-09-08T00:35:02.090Z,1009.12
2018-09-08T00:36:02.182Z,1009.14
2018-09-08T00:37:02.065Z,1009.09
2018-09-08T00:38:02.175Z,1009.13
2018-09-08T00:39:02.076Z,1009.12
2018-09-08T00:40:02.336Z,1009.13
2018-09-08T00:41:01.994Z,1009.15
2018-09-08T00:42:03.274Z,1009.12
2018-09-08T00:43:01.955Z,1009.17
2018-09-08T00:44:01.934Z,1009.18
2018-09-08T00:45:01.920Z,1009.16
2018-09-08T00:46:01.905Z,1009.17
2018-09-08T00:47:02.233Z,1009.17
2018-09-08T00:48:01.857Z,1009.14
2018-09-08T00:49:01.837Z,1009.14
2018-09-08T00:50:01.833Z,1009.18
2018-09-08T00:51:02.227Z,1009.11
2018-09-08T00:52:01.821Z,1009.13
2018-09-08T00:53:01.913Z,1009.11
2018-09-08T00:54:02.422Z,1009.17
2018-09-08T00:55:01.845Z,1009.13
2018-09-08T00:56:01.746Z,1009.12
2018-09-08T00:57:01.768Z,1009.11
2018-09-08T00:58:01.704Z,1009.09
2018-09-08T00:59:01.662Z,1009.08
2018-09-08T01:00:01.691Z,1009.12
2018-09-08T01:01:01.923Z,1009.12
2018-09-08T01:02:01.664Z,1009.13
2018-09-08T01:03:01.593Z,1009.12
2018-09-08T01:04:01.571Z,1009.13
2018-09-08T01:05:01.584Z,1009.16
2018-09-08T01:06:01.586Z,1009.15
2018-09-08T01:07:01.553Z,1009.16
2018-09-08T01:08:01.856Z,1009.16
2018-09-08T01:09:01.509Z,1009.15
2018-09-08T01:10:01.580Z,1009.21
2018-09-08T01:11:01.542Z,1009.16
2018-09-08T01:12:01.472Z,1009.19
2018-09-08T01:13:01.448Z,1009.23
2018-09-08T01:14:01.387Z,1009.24
2018-09-08T01:15:01.700Z,1009.27
2018-09-08T01:16:01.355Z,1009.26
2018-09-08T01:17:01.337Z,1009.24
2018-09-08T01:18:01.326Z,1009.32
2018-09-08T01:19:01.301Z,1009.35
2018-09-08T01:20:01.333Z,1009.38
2018-09-08T01:21:01.312Z,1009.40
2018-09-08T01:22:01.808Z,1009.39
2018-09-08T01:23:01.361Z,1009.39
2018-09-08T01:24:01.209Z,1009.41
2018-09-08T01:25:01.260Z,1009.33
2018-09-08T01:26:01.264Z,1009.35
2018-09-08T01:30:01.774Z,1009.28
2018-09-08T01:31:01.183Z,1009.27
2018-09-08T01:32:01.187Z,1009.25
2018-09-08T01:33:01.090Z,1009.24
2018-09-08T01:34:01.264Z,1009.23
2018-09-08T01:35:01.014Z,1009.16
2018-09-08T01:36:01.354Z,1009.17
2018-09-08T01:38:00.959Z,1009.16
2018-09-08T01:39:00.943Z,1009.19
2018-09-08T01:40:00.919Z,1009.14
2018-09-08T01:41:00.951Z,1009.12
2018-09-08T01:42:01.207Z,1009.10
2018-09-08T01:43:00.912Z,1009.08
2018-09-08T01:45:00.827Z,1009.11
2018-09-08T01:46:00.830Z,1009.10
2018-09-08T01:47:00.795Z,1009.15
2018-09-08T01:48:01.120Z,1009.14
2018-09-08T01:49:00.771Z,1009.19
2018-09-08T01:50:00.802Z,1009.14
2018-09-08T01:51:01.016Z,1009.17
2018-09-08T01:53:00.870Z,1009.13
2018-09-08T01:54:01.076Z,1009.11
2018-09-08T01:55:00.689Z,1009.09
2018-09-08T01:56:00.735Z,1009.10
2018-09-08T01:57:01.304Z,1009.12
2018-09-08T01:58:00.657Z,1009.14
2018-09-08T01:59:00.613Z,1009.08
2018-09-08T02:00:00.930Z,1009.08
2018-09-08T02:01:00.541Z,1009.11
2018-09-08T02:02:00.515Z,1009.13
2018-09-08T02:03:00.499Z,1009.13
2018-09-08T02:04:00.482Z,1009.15
2018-09-08T02:05:00.463Z,1009.15
2018-09-08T02:06:00.864Z,1009.21
2018-09-08T02:07:00.765Z,1009.20
2018-09-08T02:08:00.553Z,1009.21
2018-09-08T02:09:00.538Z,1009.23
2018-09-08T02:10:00.410Z,1009.23
2018-09-08T02:11:00.448Z,1009.23
2018-09-08T02:12:00.399Z,1009.16
2018-09-08T02:13:00.682Z,1009.18
2018-09-08T02:15:00.395Z,1009.21
2018-09-08T02:16:00.261Z,1009.20
2018-09-08T02:17:00.261Z,1009.20
2018-09-08T02:18:00.325Z,1009.18
2018-09-08T02:19:00.265Z,1009.16
2018-09-08T02:20:00.516Z,1009.16
2018-09-08T02:22:00.159Z,1009.15
2018-09-08T02:23:00.142Z,1009.12
2018-09-08T02:24:00.175Z,1009.12
2018-09-08T02:25:00.162Z,1009.13
2018-09-08T02:26:00.085Z,1009.17
2018-09-08T02:27:00.375Z,1009.19
2018-09-08T02:28:00.443Z,1009.16
2018-09-08T02:29:00.027Z,1009.17
2018-09-08T02:30:00.197Z,1009.17
2018-09-08T02:31:00.037Z,1009.19
2018-09-08T02:31:59.979Z,1009.16
2018-09-08T02:33:00.009Z,1009.13
2018-09-08T02:35:00.227Z,1009.14
2018-09-08T02:36:59.884Z,1009.13
2018-09-08T02:37:59.872Z,1009.11
2018-09-08T02:38:59.928Z,1009.16
2018-09-08T02:39:59.857Z,1009.14
2018-09-08T02:40:59.812Z,1009.15
2018-09-08T02:42:00.095Z,1009.18
2018-09-08T02:42:59.806Z,1009.18
2018-09-08T02:43:59.873Z,1009.17
2018-09-08T02:45:00.031Z,1009.17
2018-09-08T02:45:59.797Z,1009.15
2018-09-08T02:46:59.834Z,1009.16
2018-09-08T02:47:59.686Z,1009.15
2018-09-08T02:48:59.958Z,1009.23
2018-09-08T02:49:59.657Z,1009.19
2018-09-08T02:50:59.712Z,1009.18
2018-09-08T02:52:59.685Z,1009.19
2018-09-08T02:53:59.677Z,1009.21
2018-09-08T02:54:59.553Z,1009.19
2018-09-08T02:55:59.831Z,1009.17
2018-09-08T02:57:59.548Z,1009.19
2018-09-08T02:58:59.527Z,1009.18
2018-09-08T02:59:59.496Z,1009.16
2018-09-08T03:01:01.264Z,1009.21
2018-09-08T03:01:59.849Z,1009.20
2018-09-08T03:02:59.426Z,1009.21
2018-09-08T03:03:59.454Z,1009.30
2018-09-08T03:04:59.369Z,1009.24
2018-09-08T03:05:59.421Z,1009.21
2018-09-08T03:06:59.344Z,1009.29
2018-09-08T03:07:59.755Z,1009.27
2018-09-08T03:10:00.042Z,1009.29
2018-09-08T03:10:59.357Z,1009.33
2018-09-08T03:11:59.414Z,1009.33
2018-09-08T03:12:59.323Z,1009.30
2018-09-08T03:13:59.501Z,1009.34
2018-09-08T03:14:59.188Z,1009.31
2018-09-08T03:15:59.165Z,1009.34
2018-09-08T03:16:59.163Z,1009.33
2018-09-08T03:17:59.181Z,1009.34
2018-09-08T03:18:59.117Z,1009.38
2018-09-08T03:19:59.399Z,1009.36
2018-09-08T03:20:59.083Z,1009.35
2018-09-08T03:21:59.067Z,1009.35
2018-09-08T03:22:59.046Z,1009.35
2018-09-08T03:23:59.078Z,1009.34
2018-09-08T03:24:59.023Z,1009.34
2018-09-08T03:25:59.300Z,1009.34
2018-09-08T03:26:58.969Z,1009.37
2018-09-08T03:27:58.955Z,1009.33
2018-09-08T03:28:58.939Z,1009.37
2018-09-08T03:29:58.918Z,1009.36
2018-09-08T03:30:58.899Z,1009.37
2018-09-08T03:31:59.194Z,1009.40
2018-09-08T03:32:58.912Z,1009.40
2018-09-08T03:33:58.846Z,1009.34
2018-09-08T03:34:58.826Z,1009.37
2018-09-08T03:35:58.807Z,1009.37
2018-09-08T03:36:58.790Z,1009.33
2018-09-08T03:37:58.775Z,1009.34
2018-09-08T03:38:59.057Z,1009.36
2018-09-08T03:39:58.741Z,1009.35
2018-09-08T03:40:58.720Z,1009.33
2018-09-08T03:41:58.802Z,1009.32
2018-09-08T03:42:58.734Z,1009.38
2018-09-08T03:43:58.666Z,1009.34
2018-09-08T03:44:58.650Z,1009.34
2018-09-08T03:45:58.932Z,1009.38
2018-09-08T03:46:58.613Z,1009.35
2018-09-08T03:47:58.603Z,1009.35
2018-09-08T03:48:58.927Z,1009.33
2018-09-08T03:49:58.568Z,1009.34
2018-09-08T03:50:58.539Z,1009.36
2018-09-08T03:51:58.524Z,1009.38
2018-09-08T03:52:58.804Z,1009.36
2018-09-08T03:53:58.491Z,1009.33
2018-09-08T03:54:58.471Z,1009.39
2018-09-08T03:55:58.450Z,1009.36
2018-09-08T03:56:58.435Z,1009.40
2018-09-08T03:57:58.425Z,1009.38
2018-09-08T03:58:58.422Z,1009.43
2018-09-08T03:59:58.679Z,1009.42
2018-09-08T04:00:58.363Z,1009.46
2018-09-08T04:01:58.345Z,1009.43
2018-09-08T04:02:58.335Z,1009.47
2018-09-08T04:03:58.358Z,1009.45
2018-09-08T04:04:58.338Z,1009.45
2018-09-08T04:05:58.287Z,1009.45
2018-09-08T04:07:58.542Z,1009.47
2018-09-08T04:08:58.287Z,1009.45
2018-09-08T04:09:58.217Z,1009.48
2018-09-08T04:10:58.265Z,1009.45
2018-09-08T04:11:58.213Z,1009.47
2018-09-08T04:12:58.146Z,1009.47
2018-09-08T04:13:58.232Z,1009.48
2018-09-08T04:14:58.410Z,1009.42
2018-09-08T04:15:58.145Z,1009.49
2018-09-08T04:16:58.072Z,1009.46
2018-09-08T04:17:58.086Z,1009.45
2018-09-08T04:18:58.040Z,1009.47
2018-09-08T04:20:58.101Z,1009.47
2018-09-08T04:21:58.285Z,1009.49
2018-09-08T04:22:57.963Z,1009.52
2018-09-08T04:23:58.008Z,1009.55
2018-09-08T04:24:57.927Z,1009.58
2018-09-08T04:25:57.909Z,1009.57
2018-09-08T04:26:57.945Z,1009.65
2018-09-08T04:27:58.179Z,1009.62
2018-09-08T04:28:57.865Z,1009.62
2018-09-08T04:29:57.840Z,1009.61
2018-09-08T04:30:57.823Z,1009.64
2018-09-08T04:31:57.799Z,1009.62
2018-09-08T04:32:57.787Z,1009.63
2018-09-08T04:33:58.115Z,1009.66
2018-09-08T04:34:57.754Z,1009.66
2018-09-08T04:35:57.728Z,1009.66
2018-09-08T04:36:57.714Z,1009.67
2018-09-08T04:37:57.752Z,1009.71
2018-09-08T04:38:57.682Z,1009.75
2018-09-08T04:39:57.957Z,1009.75
2018-09-08T04:40:57.665Z,1009.74
2018-09-08T04:41:57.629Z,1009.78
2018-09-08T04:42:57.603Z,1009.80
2018-09-08T04:43:57.653Z,1009.81
2018-09-08T04:44:57.565Z,1009.81
2018-09-08T04:45:57.850Z,1009.85
2018-09-08T04:46:57.531Z,1009.87
2018-09-08T04:47:57.520Z,1009.91
2018-09-08T04:49:57.484Z,1009.87
2018-09-08T04:50:57.462Z,1009.92
2018-09-08T04:51:57.799Z,1009.92
2018-09-08T04:52:57.478Z,1009.91
2018-09-08T04:53:57.410Z,1009.94
2018-09-08T04:54:57.444Z,1009.95
2018-09-08T04:55:57.445Z,1009.98
2018-09-08T04:56:57.398Z,1009.94
2018-09-08T04:57:57.689Z,1009.95
2018-09-08T04:58:57.317Z,1009.96
2018-09-08T04:59:57.312Z,1009.90
2018-09-08T05:00:57.283Z,1009.91
2018-09-08T05:01:57.267Z,1009.96
2018-09-08T05:02:57.297Z,1009.94
2018-09-08T05:03:57.224Z,1009.95
2018-09-08T05:04:57.507Z,1009.95
2018-09-08T05:06:57.172Z,1009.97
2018-09-08T05:07:57.201Z,1009.98
2018-09-08T05:08:57.241Z,1009.98
2018-09-08T05:09:57.135Z,1009.99
2018-09-08T05:10:57.099Z,1010.03
2018-09-08T05:11:57.377Z,1009.96
2018-09-08T05:12:57.064Z,1010.02
2018-09-08T05:13:57.090Z,1010.00
2018-09-08T05:15:57.002Z,1010.06
2018-09-08T05:16:57.147Z,1010.05
2018-09-08T05:17:56.972Z,1010.05
2018-09-08T05:18:57.253Z,1010.06
2018-09-08T05:19:56.936Z,1010.07
2018-09-08T05:20:57.096Z,1010.05
2018-09-08T05:21:56.975Z,1010.09
2018-09-08T05:22:56.938Z,1010.14
2018-09-08T05:23:56.907Z,1010.10
2018-09-08T05:24:56.863Z,1010.14
2018-09-08T05:25:57.123Z,1010.12
2018-09-08T05:26:56.806Z,1010.19
2018-09-08T05:27:56.792Z,1010.12
2018-09-08T05:28:56.771Z,1010.18
2018-09-08T05:29:56.803Z,1010.15
2018-09-08T05:30:56.737Z,1010.26
2018-09-08T05:32:00.239Z,1010.19
2018-09-08T05:32:56.995Z,1010.10
2018-09-08T05:33:56.833Z,1010.20
2018-09-08T05:34:56.714Z,1010.10
2018-09-08T05:35:56.972Z,1010.22
2018-09-08T05:36:56.630Z,1010.18
2018-09-08T05:37:56.742Z,1010.21
2018-09-08T05:38:56.820Z,1010.22
2018-09-08T05:39:56.927Z,1010.22
2018-09-08T05:40:56.557Z,1010.19
2018-09-08T05:41:56.584Z,1010.22
2018-09-08T05:42:56.617Z,1010.22
2018-09-08T05:43:56.499Z,1010.23
2018-09-08T05:44:56.483Z,1010.32
2018-09-08T05:45:56.466Z,1010.17
2018-09-08T05:46:56.796Z,1010.16
2018-09-08T05:47:56.563Z,1010.18
2018-09-08T05:49:56.404Z,1010.24
2018-09-08T05:51:56.460Z,1010.28
2018-09-08T05:52:56.687Z,1010.26
2018-09-08T05:53:57.897Z,1010.25
2018-09-08T05:54:56.307Z,1010.32
2018-09-08T05:55:56.284Z,1010.35
2018-09-08T05:56:56.270Z,1010.31
2018-09-08T05:57:56.853Z,1010.31
2018-09-08T05:58:56.582Z,1010.29
2018-09-08T05:59:56.365Z,1010.37
2018-09-08T06:00:56.266Z,1010.30
2018-09-08T06:01:56.226Z,1010.42
2018-09-08T06:02:56.161Z,1010.32
2018-09-08T06:03:56.143Z,1010.31
2018-09-08T06:04:56.425Z,1010.42
2018-09-08T06:05:56.107Z,1010.34
2018-09-08T06:06:56.093Z,1010.29
2018-09-08T06:07:56.127Z,1010.34
2018-09-08T06:08:56.054Z,1010.37
2018-09-08T06:09:56.040Z,1010.44
2018-09-08T06:10:56.329Z,1010.40
2018-09-08T06:11:56.004Z,1010.52
2018-09-08T06:12:56.152Z,1010.40
2018-09-08T06:13:56.019Z,1010.40
2018-09-08T06:14:55.954Z,1010.51
2018-09-08T06:15:55.941Z,1010.48
2018-09-08T06:16:56.467Z,1010.54
2018-09-08T06:17:55.904Z,1010.51
2018-09-08T06:18:56.007Z,1010.49
2018-09-08T06:19:55.872Z,1010.51
2018-09-08T06:20:55.849Z,1010.44
2018-09-08T06:21:55.834Z,1010.45
2018-09-08T06:22:56.216Z,1010.53
2018-09-08T06:23:56.603Z,1010.51
2018-09-08T06:24:56.006Z,1010.58
2018-09-08T06:25:56.064Z,1010.53
2018-09-08T06:26:55.751Z,1010.52
2018-09-08T06:27:55.743Z,1010.47
2018-09-08T06:28:56.083Z,1010.52
2018-09-08T06:29:55.700Z,1010.52
2018-09-08T06:30:55.883Z,1010.47
2018-09-08T06:31:56.072Z,1010.59
2018-09-08T06:32:55.697Z,1010.49
2018-09-08T06:33:55.702Z,1010.49
2018-09-08T06:34:55.675Z,1010.47
2018-09-08T06:35:55.892Z,1010.45
2018-09-08T06:36:55.575Z,1010.48
2018-09-08T06:37:55.629Z,1010.51
2018-09-08T06:38:55.601Z,1010.50
2018-09-08T06:39:55.582Z,1010.54
2018-09-08T06:40:55.512Z,1010.60
2018-09-08T06:41:55.548Z,1010.54
2018-09-08T06:42:55.935Z,1010.60
2018-09-08T06:43:55.465Z,1010.59
2018-09-08T06:44:55.522Z,1010.59
2018-09-08T06:46:55.408Z,1010.66
2018-09-08T06:48:55.750Z,1010.69
2018-09-08T06:49:55.409Z,1010.76
2018-09-08T06:50:55.337Z,1010.60
2018-09-08T06:51:55.333Z,1010.62
2018-09-08T06:52:55.313Z,1010.72
2018-09-08T06:53:55.303Z,1010.76
2018-09-08T06:54:55.287Z,1010.85
2018-09-08T06:55:55.620Z,1010.75
2018-09-08T06:56:55.257Z,1010.62
2018-09-08T06:58:55.225Z,1010.78
2018-09-08T06:59:55.248Z,1010.71
2018-09-08T07:00:55.173Z,1010.78
2018-09-08T07:01:55.164Z,1010.73
2018-09-08T07:02:55.143Z,1010.76
2018-09-08T07:03:55.194Z,1010.73
2018-09-08T07:04:55.114Z,1010.69
2018-09-08T07:05:55.142Z,1010.71
2018-09-08T07:06:55.073Z,1010.79
2018-09-08T07:07:55.060Z,1010.85
2018-09-08T07:08:55.395Z,1010.78
2018-09-08T07:09:55.024Z,1010.85
2018-09-08T07:10:55.010Z,1010.82
2018-09-08T07:11:55.073Z,1010.88
2018-09-08T07:12:54.977Z,1010.77
2018-09-08T07:13:54.959Z,1010.81
2018-09-08T07:14:54.945Z,1010.77
2018-09-08T07:15:55.235Z,1010.81
2018-09-08T07:16:55.085Z,1010.86
2018-09-08T07:17:55.131Z,1010.89
2018-09-08T07:18:54.971Z,1010.87
2018-09-08T07:19:54.858Z,1010.98
2018-09-08T07:20:54.848Z,1011.02
2018-09-08T07:21:55.127Z,1010.95
2018-09-08T07:23:54.852Z,1011.01
2018-09-08T07:24:54.819Z,1011.04
2018-09-08T07:25:54.761Z,1010.99
2018-09-08T07:26:54.748Z,1011.15
2018-09-08T07:27:55.143Z,1011.09
2018-09-08T07:28:54.723Z,1011.07
2018-09-08T07:29:54.697Z,1011.03
2018-09-08T07:30:54.768Z,1011.00
2018-09-08T07:31:54.664Z,1011.07
2018-09-08T07:32:54.654Z,1011.08
2018-09-08T07:33:54.934Z,1011.04
2018-09-08T07:34:54.673Z,1011.07
2018-09-08T07:35:54.606Z,1011.09
2018-09-08T07:36:54.586Z,1011.04
2018-09-08T07:37:54.574Z,1011.07
2018-09-08T07:38:54.572Z,1011.06
2018-09-08T07:40:54.824Z,1011.07
2018-09-08T07:41:54.560Z,1011.09
2018-09-08T07:42:54.494Z,1011.05
2018-09-08T07:43:54.480Z,1011.11
2018-09-08T07:44:54.463Z,1011.11
2018-09-08T07:45:54.501Z,1011.01
2018-09-08T07:47:55.112Z,1011.14
2018-09-08T07:48:54.409Z,1011.08
2018-09-08T07:50:54.376Z,1011.10
2018-09-08T07:51:55.563Z,1011.13
2018-09-08T07:52:54.355Z,1011.14
2018-09-08T07:53:55.349Z,1011.16
2018-09-08T07:54:54.359Z,1011.15
2018-09-08T07:55:54.298Z,1011.15
2018-09-08T07:57:54.265Z,1011.18
2018-09-08T07:58:54.344Z,1011.34
2018-09-08T07:59:54.595Z,1011.18
2018-09-08T08:00:54.221Z,1011.29
2018-09-08T08:01:54.210Z,1011.27
2018-09-08T08:02:54.187Z,1011.24
2018-09-08T08:03:54.179Z,1011.32
2018-09-08T08:04:54.167Z,1011.34
2018-09-08T08:05:54.143Z,1011.37
2018-09-08T08:06:54.133Z,1011.34
2018-09-08T08:07:54.294Z,1011.43
2018-09-08T08:08:54.156Z,1011.39
2018-09-08T08:09:54.155Z,1011.42
2018-09-08T08:10:54.377Z,1011.34
2018-09-08T08:11:54.056Z,1011.41
2018-09-08T08:12:54.348Z,1011.45
2018-09-08T08:13:54.049Z,1011.40
2018-09-08T08:14:54.028Z,1011.46
2018-09-08T08:15:54.003Z,1011.43
2018-09-08T08:16:54.293Z,1011.50
2018-09-08T08:17:53.983Z,1011.45
2018-09-08T08:18:54.059Z,1011.49
2018-09-08T08:19:54.255Z,1011.40
2018-09-08T08:20:53.933Z,1011.53
2018-09-08T08:21:53.920Z,1011.43
2018-09-08T08:22:54.292Z,1011.51
2018-09-08T08:23:53.886Z,1011.46
2018-09-08T08:24:53.881Z,1011.38
2018-09-08T08:25:53.958Z,1011.46
2018-09-08T08:26:54.154Z,1011.43
2018-09-08T08:28:53.822Z,1011.48
2018-09-08T08:29:53.806Z,1011.44
2018-09-08T08:30:53.795Z,1011.51
2018-09-08T08:31:53.786Z,1011.51
2018-09-08T08:32:53.798Z,1011.54
2018-09-08T08:33:54.102Z,1011.59
2018-09-08T08:34:53.792Z,1011.50
2018-09-08T08:35:56.758Z,1011.63
2018-09-08T08:36:53.779Z,1011.61
2018-09-08T08:37:53.835Z,1011.61
2018-09-08T08:39:54.020Z,1011.83
2018-09-08T08:40:53.715Z,1011.89
2018-09-08T08:41:53.697Z,1011.75
2018-09-08T08:42:53.700Z,1011.70
2018-09-08T08:43:53.635Z,1011.65
2018-09-08T08:44:53.610Z,1011.76
2018-09-08T08:45:53.665Z,1011.66
2018-09-08T08:46:55.412Z,1011.72
2018-09-08T08:47:54.364Z,1011.68
2018-09-08T08:48:53.577Z,1011.63
2018-09-08T08:49:53.628Z,1011.74
2018-09-08T08:50:53.530Z,1011.72
2018-09-08T08:51:53.518Z,1011.71
2018-09-08T08:52:53.699Z,1012.02
2018-09-08T08:53:53.837Z,1011.73
2018-09-08T08:54:53.475Z,1012.10
2018-09-08T08:55:53.539Z,1011.97
2018-09-08T08:56:53.536Z,1012.00
2018-09-08T08:57:53.490Z,1012.36
2018-09-08T08:59:58.829Z,1011.81
2018-09-08T09:00:53.599Z,1012.40
2018-09-08T09:01:53.388Z,1012.04
2018-09-08T09:02:53.759Z,1011.86
2018-09-08T09:03:53.434Z,1011.89
2018-09-08T09:04:53.393Z,1011.85
2018-09-08T09:05:53.335Z,1012.14
2018-09-08T09:06:53.975Z,1012.44
2018-09-08T09:07:53.303Z,1012.09
2018-09-08T09:08:53.311Z,1012.10
2018-09-08T09:09:53.344Z,1012.23
2018-09-08T09:10:53.269Z,1012.46
2018-09-08T09:11:54.168Z,1012.35
2018-09-08T09:12:53.328Z,1011.99
2018-09-08T09:13:53.236Z,1011.93
2018-09-08T09:14:53.289Z,1012.06
2018-09-08T09:15:53.359Z,1011.88
2018-09-08T09:16:53.204Z,1011.88
2018-09-08T09:17:53.552Z,1011.97
2018-09-08T09:18:53.546Z,1012.11
2018-09-08T09:19:53.159Z,1012.05
2018-09-08T09:20:53.198Z,1012.15
2018-09-08T09:21:53.301Z,1011.94
2018-09-08T09:22:53.348Z,1011.95
2018-09-08T09:23:53.419Z,1012.09
2018-09-08T09:24:53.817Z,1012.04
2018-09-08T09:25:53.090Z,1012.09
2018-09-08T09:26:53.072Z,1012.05
2018-09-08T09:27:53.063Z,1011.98
2018-09-08T09:28:53.047Z,1011.94
2018-09-08T09:29:53.334Z,1012.04
2018-09-08T09:30:53.029Z,1012.07
2018-09-08T09:31:53.086Z,1012.11
2018-09-08T09:33:52.980Z,1012.17
2018-09-08T09:34:53.395Z,1012.19
2018-09-08T09:35:53.455Z,1012.19
2018-09-08T09:36:52.952Z,1012.34
2018-09-08T09:37:53.183Z,1012.32
2018-09-08T09:38:53.017Z,1012.16
2018-09-08T09:39:52.909Z,1012.09
2018-09-08T09:40:53.192Z,1012.16
2018-09-08T09:41:53.095Z,1012.18
2018-09-08T09:42:53.241Z,1012.16
2018-09-08T09:43:52.853Z,1012.12
2018-09-08T09:44:52.843Z,1012.41
2018-09-08T09:45:52.829Z,1012.79
2018-09-08T09:46:52.873Z,1012.13
2018-09-08T09:47:52.814Z,1013.16
2018-09-08T09:48:52.794Z,1012.91
2018-09-08T09:49:54.041Z,1012.80
2018-09-08T09:50:53.847Z,1012.95
2018-09-08T09:51:53.510Z,1012.96
2018-09-08T09:52:53.763Z,1012.14
2018-09-08T09:53:53.683Z,1012.08
2018-09-08T09:54:52.722Z,1012.33
2018-09-08T09:55:52.707Z,1012.00
2018-09-08T09:56:52.996Z,1012.19
2018-09-08T09:58:52.672Z,1012.62
2018-09-08T09:59:52.660Z,1012.78
2018-09-08T10:00:52.707Z,1012.78
2018-09-08T10:02:53.515Z,1012.60
2018-09-08T10:03:52.777Z,1012.56
2018-09-08T10:04:52.603Z,1012.54
2018-09-08T10:05:52.588Z,1012.16
2018-09-08T10:06:52.880Z,1012.79
2018-09-08T10:07:52.567Z,1012.40
2018-09-08T10:08:52.608Z,1012.32
2018-09-08T10:09:52.594Z,1012.03
2018-09-08T10:11:53.321Z,1012.81
2018-09-08T10:12:52.559Z,1013.05
2018-09-08T10:13:52.500Z,1012.97
2018-09-08T10:14:52.631Z,1012.58
2018-09-08T10:15:53.078Z,1012.92
2018-09-08T10:16:52.997Z,1012.08
2018-09-08T10:17:52.464Z,1012.60
2018-09-08T10:18:54.224Z,1012.26
2018-09-08T10:19:52.465Z,1012.06
2018-09-08T10:20:52.513Z,1012.28
2018-09-08T10:21:52.681Z,1012.03
2018-09-08T10:22:52.943Z,1012.40
2018-09-08T10:24:04.340Z,1012.69
2018-09-08T10:24:52.449Z,1012.24
2018-09-08T10:25:53.584Z,1012.44
2018-09-08T10:26:52.832Z,1012.19
2018-09-08T10:31:52.897Z,1012.25
2018-09-08T10:32:52.289Z,1012.20
2018-09-08T10:33:52.278Z,1012.23
2018-09-08T10:34:52.331Z,1012.23
2018-09-08T10:35:52.257Z,1012.25
2018-09-08T10:36:52.254Z,1012.22
2018-09-08T10:37:52.374Z,1012.20
2018-09-08T10:38:52.528Z,1012.21
2018-09-08T10:39:52.212Z,1012.23
2018-09-08T10:40:52.200Z,1012.15
2018-09-08T10:41:52.188Z,1012.22
2018-09-08T10:43:52.324Z,1012.16
2018-09-08T10:44:52.463Z,1012.22
2018-09-08T10:45:52.150Z,1012.23
2018-09-08T10:46:52.139Z,1012.12
2018-09-08T10:47:52.123Z,1012.15
2018-09-08T10:48:52.115Z,1012.16
2018-09-08T10:49:52.255Z,1012.16
2018-09-08T10:50:52.119Z,1012.15
2018-09-08T10:51:52.380Z,1012.22
2018-09-08T10:52:52.084Z,1012.16
2018-09-08T10:53:52.116Z,1012.09
2018-09-08T10:54:52.278Z,1012.11
2018-09-08T10:55:52.360Z,1012.04
2018-09-08T10:56:52.031Z,1012.07
2018-09-08T10:57:52.563Z,1012.05
2018-09-08T10:58:52.104Z,1012.15
2018-09-08T11:00:52.016Z,1012.06
2018-09-08T11:01:52.108Z,1012.14
2018-09-08T11:02:52.299Z,1012.11
2018-09-08T11:03:52.245Z,1012.27
2018-09-08T11:04:51.974Z,1012.18
2018-09-08T11:05:51.934Z,1012.20
2018-09-08T11:06:51.969Z,1012.27
2018-09-08T11:07:52.058Z,1012.34
2018-09-08T11:08:51.890Z,1012.25
2018-09-08T11:09:51.880Z,1012.23
2018-09-08T11:10:52.167Z,1012.21
2018-09-08T11:11:51.859Z,1012.16
2018-09-08T11:12:51.895Z,1012.21
2018-09-08T11:13:52.131Z,1012.29
2018-09-08T11:14:51.821Z,1012.14
2018-09-08T11:15:51.891Z,1012.28
2018-09-08T11:16:51.799Z,1012.22
2018-09-08T11:17:52.100Z,1012.37
2018-09-08T11:18:51.854Z,1012.39
2018-09-08T11:19:51.820Z,1012.46
2018-09-08T11:20:51.761Z,1012.23
2018-09-08T11:21:51.762Z,1012.34
2018-09-08T11:22:51.737Z,1012.45
2018-09-08T11:23:51.758Z,1012.28
2018-09-08T11:24:52.018Z,1012.35
2018-09-08T11:25:52.017Z,1012.48
2018-09-08T11:26:51.693Z,1012.56
2018-09-08T11:27:51.678Z,1012.48
2018-09-08T11:28:51.679Z,1012.49
2018-09-08T11:29:51.663Z,1012.30
2018-09-08T11:30:51.657Z,1012.56
2018-09-08T11:31:52.120Z,1012.43
2018-09-08T11:32:51.643Z,1012.39
2018-09-08T11:33:51.632Z,1012.51
2018-09-08T11:34:51.620Z,1012.51
2018-09-08T11:35:51.604Z,1012.57
2018-09-08T11:36:51.797Z,1012.50
2018-09-08T11:37:51.648Z,1012.45
2018-09-08T11:38:51.627Z,1012.48
2018-09-08T11:39:51.627Z,1012.51
2018-09-08T11:40:51.555Z,1012.36
2018-09-08T11:41:51.543Z,1012.39
2018-09-08T11:42:51.528Z,1012.32
2018-09-08T11:43:51.522Z,1012.31
2018-09-08T11:44:52.085Z,1012.34
2018-09-08T11:45:51.507Z,1012.42
2018-09-08T11:46:51.487Z,1012.38
2018-09-08T11:47:51.478Z,1012.32
2018-09-08T11:48:51.467Z,1012.26
2018-09-08T11:49:51.461Z,1012.26
2018-09-08T11:50:51.750Z,1012.28
2018-09-08T11:52:51.495Z,1012.25
2018-09-08T11:53:51.422Z,1012.19
2018-09-08T11:54:51.409Z,1012.31
2018-09-08T11:55:51.454Z,1012.35
2018-09-08T11:56:51.391Z,1012.28
2018-09-08T11:57:51.755Z,1012.29
2018-09-08T11:58:51.373Z,1012.27
2018-09-08T11:59:51.504Z,1012.29
2018-09-08T12:00:51.352Z,1012.31
2018-09-08T12:01:51.578Z,1012.25
2018-09-08T12:02:51.535Z,1012.34
2018-09-08T12:03:51.866Z,1012.33
2018-09-08T12:04:51.581Z,1012.34
2018-09-08T12:05:51.528Z,1012.26
2018-09-08T12:06:51.330Z,1012.40
2018-09-08T12:07:51.334Z,1012.25
2018-09-08T12:08:51.263Z,1012.27
2018-09-08T12:09:51.856Z,1012.22
2018-09-08T12:10:51.249Z,1012.26
2018-09-08T12:11:51.374Z,1012.39
2018-09-08T12:12:51.389Z,1012.25
2018-09-08T12:13:51.477Z,1012.36
2018-09-08T12:14:51.429Z,1012.32
2018-09-08T12:15:51.842Z,1012.44
2018-09-08T12:16:51.178Z,1012.25
2018-09-08T12:18:51.150Z,1012.32
2018-09-08T12:19:52.522Z,1012.55
2018-09-08T12:20:51.181Z,1012.65
2018-09-08T12:21:51.656Z,1012.34
2018-09-08T12:22:52.530Z,1012.54
2018-09-08T12:23:51.098Z,1012.49
2018-09-08T12:24:51.142Z,1012.33
2018-09-08T12:25:51.413Z,1012.37
2018-09-08T12:26:51.135Z,1012.56
2018-09-08T12:27:51.418Z,1012.52
2018-09-08T12:28:51.038Z,1012.52
2018-09-08T12:29:51.334Z,1012.37
2018-09-08T12:30:51.448Z,1012.32
2018-09-08T12:31:51.391Z,1012.33
2018-09-08T12:32:58.405Z,1012.38
2018-09-08T12:34:08.493Z,1012.35
2018-09-08T12:35:10.948Z,1012.28
2018-09-08T12:35:57.910Z,1012.31
2018-09-08T12:37:04.200Z,1012.27
2018-09-08T12:37:50.947Z,1012.34
2018-09-08T12:38:51.565Z,1012.38
2018-09-08T12:39:51.133Z,1012.37
2018-09-08T12:40:57.535Z,1012.30
2018-09-08T12:41:52.623Z,1012.36
2018-09-08T12:42:50.900Z,1012.40
2018-09-08T12:43:51.462Z,1012.39
2018-09-08T12:44:50.868Z,1012.42
2018-09-08T12:45:50.909Z,1012.47
2018-09-08T12:46:50.860Z,1012.50
2018-09-08T12:47:51.187Z,1012.42